createdAt,value
2023-05-07T00:00:21.706Z,22.25
2023-05-07T00:02:48.790Z,23.30
2023-05-07T00:05:15.953Z,26.02
2023-05-07T00:07:42.794Z,18.58
2023-05-07T00:10:13.441Z,23.92
2023-05-07T00:12:41.518Z,22.17
2023-05-07T00:15:09.033Z,20.13
2023-05-07T00:17:36.052Z,19.52
2023-05-07T00:20:04.544Z,18.33
2023-05-07T00:23:05.564Z,24.08
2023-05-07T00:25:32.267Z,21.40
2023-05-07T00:28:03.659Z,24.58
2023-05-07T00:30:30.740Z,22.02
2023-05-07T00:32:57.717Z,21.10
2023-05-07T00:35:24.568Z,20.65
2023-05-07T00:37:51.340Z,21.90
2023-05-07T00:40:18.110Z,20.85
2023-05-07T00:42:47.954Z,20.55
2023-05-07T00:45:15.232Z,20.60
2023-05-07T00:47:42.432Z,23.33
2023-05-07T00:50:11.168Z,21.65
2023-05-07T00:52:39.874Z,21.70
2023-05-07T00:55:08.218Z,21.70
2023-05-07T00:57:40.588Z,22.52
2023-05-07T01:00:10.970Z,22.67
2023-05-07T01:02:37.885Z,20.83
2023-05-07T01:05:07.989Z,20.13
2023-05-07T01:07:36.949Z,23.27
2023-05-07T01:10:05.461Z,20.38
2023-05-07T01:12:32.542Z,22.58
2023-05-07T01:14:59.474Z,22.42
2023-05-07T01:17:26.121Z,21.58
2023-05-07T01:19:54.097Z,22.67
2023-05-07T01:22:33.397Z,23.10
2023-05-07T01:25:02.446Z,19.85
2023-05-07T01:27:29.845Z,21.65
2023-05-07T01:29:59.192Z,23.83
2023-05-07T01:32:36.606Z,23.23
2023-05-07T01:35:07.174Z,19.52
2023-05-07T01:37:34.571Z,20.90
2023-05-07T01:40:02.851Z,21.15
2023-05-07T01:42:30.578Z,21.67
2023-05-07T01:44:57.606Z,23.80
2023-05-07T01:47:25.445Z,18.73
2023-05-07T01:49:52.291Z,21.17
2023-05-07T01:52:19.038Z,22.27
2023-05-07T01:54:45.646Z,21.13
2023-05-07T01:57:12.255Z,21.08
2023-05-07T01:59:39.000Z,20.90
2023-05-07T02:02:05.690Z,20.33
2023-05-07T02:04:32.431Z,19.52
2023-05-07T02:06:59.186Z,21.30
2023-05-07T02:09:25.834Z,19.85
2023-05-07T02:11:52.441Z,21.95
2023-05-07T02:14:21.107Z,20.67
2023-05-07T02:16:47.887Z,19.80
2023-05-07T02:19:14.638Z,24.73
2023-05-07T02:21:41.288Z,19.77
2023-05-07T02:24:08.108Z,22.58
2023-05-07T02:26:35.186Z,20.63
2023-05-07T02:29:01.914Z,22.98
2023-05-07T02:31:28.528Z,22.73
2023-05-07T02:33:55.184Z,18.52
2023-05-07T02:36:21.790Z,20.88
2023-05-07T02:38:48.416Z,19.77
2023-05-07T02:41:15.053Z,24.48
2023-05-07T02:43:41.639Z,20.42
2023-05-07T02:46:10.154Z,21.05
2023-05-07T02:48:37.484Z,21.23
2023-05-07T02:51:04.958Z,19.73
2023-05-07T02:53:31.761Z,23.52
2023-05-07T02:56:00.029Z,25.00
2023-05-07T02:58:27.269Z,22.67
2023-05-07T03:00:55.640Z,25.42
2023-05-07T03:03:22.493Z,19.75
2023-05-07T03:05:49.172Z,22.65
2023-05-07T03:08:15.859Z,22.52
2023-05-07T03:10:42.553Z,20.70
2023-05-07T03:13:09.248Z,20.10
2023-05-07T03:15:36.514Z,19.38
2023-05-07T03:18:03.380Z,22.08
2023-05-07T03:20:31.037Z,22.50
2023-05-07T03:22:57.857Z,21.75
2023-05-07T03:25:24.621Z,25.23
2023-05-07T03:27:51.353Z,21.15
2023-05-07T03:30:18.108Z,24.42
2023-05-07T03:32:44.874Z,23.50
2023-05-07T03:35:11.712Z,22.13
2023-05-07T03:37:39.316Z,22.52
2023-05-07T03:40:06.927Z,19.92
2023-05-07T03:42:33.586Z,20.83
2023-05-07T03:45:00.255Z,22.13
2023-05-07T03:47:26.984Z,24.17
2023-05-07T03:49:54.923Z,22.10
2023-05-07T03:52:25.640Z,19.13
2023-05-07T03:54:53.378Z,19.38
2023-05-07T03:57:20.505Z,18.77
2023-05-07T03:59:47.225Z,20.23
2023-05-07T04:02:13.874Z,16.88
2023-05-07T04:04:40.684Z,19.60
2023-05-07T04:07:08.386Z,18.90
2023-05-07T04:09:35.244Z,22.40
2023-05-07T04:12:02.372Z,19.27
2023-05-07T04:14:29.067Z,19.63
2023-05-07T04:16:55.819Z,15.98
2023-05-07T04:19:22.530Z,16.33
2023-05-07T04:21:49.337Z,16.80
2023-05-07T04:24:16.024Z,16.30
2023-05-07T04:26:42.653Z,14.60
2023-05-07T04:29:09.365Z,17.45
2023-05-07T04:31:36.335Z,15.35
2023-05-07T04:34:03.175Z,15.32
2023-05-07T04:36:30.163Z,17.95
2023-05-07T04:38:56.855Z,19.25
2023-05-07T04:41:23.676Z,17.48
2023-05-07T04:43:50.651Z,16.98
2023-05-07T04:46:17.402Z,14.70
2023-05-07T04:48:44.215Z,16.35
2023-05-07T04:51:11.028Z,14.43
2023-05-07T04:53:38.782Z,17.10
2023-05-07T04:56:05.646Z,15.23
2023-05-07T04:58:32.786Z,16.05
2023-05-07T05:01:01.371Z,17.60
2023-05-07T05:03:28.391Z,17.38
2023-05-07T05:05:55.099Z,15.10
2023-05-07T05:08:21.858Z,17.90
2023-05-07T05:10:51.113Z,17.75
2023-05-07T05:13:18.002Z,17.80
2023-05-07T05:15:44.872Z,17.30
2023-05-07T05:18:11.670Z,15.70
2023-05-07T05:20:38.358Z,16.25
2023-05-07T05:23:05.025Z,18.30
2023-05-07T05:25:31.750Z,17.30
2023-05-07T05:27:58.352Z,14.00
2023-05-07T05:30:25.032Z,13.38
2023-05-07T05:32:51.774Z,14.80
2023-05-07T05:35:18.452Z,16.95
2023-05-07T05:37:45.320Z,16.88
2023-05-07T05:40:12.600Z,16.85
2023-05-07T05:42:39.557Z,17.75
2023-05-07T05:45:06.915Z,16.33
2023-05-07T05:47:33.807Z,17.58
2023-05-07T05:50:00.645Z,14.52
2023-05-07T05:52:27.345Z,14.95
2023-05-07T05:54:54.913Z,14.30
2023-05-07T05:57:21.616Z,16.13
2023-05-07T05:59:48.466Z,14.55
2023-05-07T06:02:15.405Z,15.15
2023-05-07T06:04:43.849Z,17.58
2023-05-07T06:07:10.769Z,13.70
2023-05-07T06:09:37.427Z,14.95
2023-05-07T06:12:04.487Z,14.38
2023-05-07T06:14:31.555Z,14.18
2023-05-07T06:16:58.353Z,11.93
2023-05-07T06:19:25.250Z,13.88
2023-05-07T06:21:51.946Z,12.73
2023-05-07T06:24:18.551Z,14.88
2023-05-07T06:26:45.190Z,12.13
2023-05-07T06:29:12.039Z,10.55
2023-05-07T06:31:38.801Z,11.25
2023-05-07T06:34:06.225Z,13.30
2023-05-07T06:36:32.844Z,9.55
2023-05-07T06:38:59.473Z,9.85
2023-05-07T06:41:26.875Z,10.45
2023-05-07T06:43:53.574Z,9.60
2023-05-07T06:46:20.443Z,9.35
2023-05-07T06:48:47.112Z,10.15
2023-05-07T06:51:13.941Z,9.10
2023-05-07T06:53:41.530Z,11.35
2023-05-07T06:56:08.177Z,9.75
2023-05-07T06:58:35.197Z,9.88
2023-05-07T07:01:01.917Z,10.60
2023-05-07T07:03:28.687Z,8.07
2023-05-07T07:05:56.068Z,9.18
2023-05-07T07:08:23.435Z,10.63
2023-05-07T07:10:50.385Z,8.30
2023-05-07T07:13:17.213Z,9.77
2023-05-07T07:15:44.465Z,9.80
2023-05-07T07:18:11.348Z,8.88
2023-05-07T07:20:38.148Z,10.18
2023-05-07T07:23:04.902Z,8.40
2023-05-07T07:25:31.570Z,8.88
2023-05-07T07:27:58.345Z,9.73
2023-05-07T07:30:27.055Z,9.65
2023-05-07T07:32:53.964Z,9.65
2023-05-07T07:35:20.700Z,8.48
2023-05-07T07:37:50.811Z,7.07
2023-05-07T07:40:17.505Z,7.43
2023-05-07T07:42:44.328Z,5.88
2023-05-07T07:45:11.491Z,5.82
2023-05-07T07:47:38.258Z,6.53
2023-05-07T07:50:05.482Z,7.22
2023-05-07T07:52:32.206Z,5.90
2023-05-07T07:54:58.802Z,6.05
2023-05-07T07:57:25.542Z,7.75
2023-05-07T07:59:52.422Z,10.45
2023-05-07T08:02:19.174Z,8.73
2023-05-07T08:04:46.213Z,7.63
2023-05-07T08:07:13.061Z,5.38
2023-05-07T08:09:39.971Z,5.43
2023-05-07T08:12:07.441Z,8.18
2023-05-07T08:14:35.678Z,5.55
2023-05-07T08:17:02.462Z,6.68
2023-05-07T08:19:29.230Z,4.85
2023-05-07T08:21:56.527Z,4.78
2023-05-07T08:24:23.228Z,5.25
2023-05-07T08:26:50.711Z,7.80
2023-05-07T08:29:17.371Z,5.13
2023-05-07T08:31:44.158Z,7.00
2023-05-07T08:34:11.569Z,6.20
2023-05-07T08:36:38.195Z,6.40
2023-05-07T08:39:05.057Z,5.03
2023-05-07T08:41:32.189Z,8.25
2023-05-07T08:47:55.831Z,5.38
2023-05-07T08:50:22.623Z,4.53
2023-05-07T08:52:49.964Z,4.38
2023-05-07T08:55:16.686Z,4.93
2023-05-07T08:57:43.307Z,4.53
2023-05-07T09:00:11.122Z,5.93
2023-05-07T09:02:38.293Z,5.45
2023-05-07T09:05:05.585Z,4.15
2023-05-07T09:07:32.282Z,4.93
2023-05-07T09:09:59.106Z,4.85
2023-05-07T09:12:25.855Z,6.20
2023-05-07T09:14:52.617Z,6.57
2023-05-07T09:17:19.617Z,3.65
2023-05-07T09:19:46.915Z,3.35
2023-05-07T09:22:14.090Z,2.83
2023-05-07T09:24:40.867Z,2.75
2023-05-07T09:27:09.273Z,3.03
2023-05-07T09:29:38.612Z,2.25
2023-05-07T09:32:07.529Z,3.23
2023-05-07T09:34:34.488Z,4.30
2023-05-07T09:37:05.358Z,2.80
2023-05-07T09:39:49.670Z,2.20
2023-05-07T09:42:16.320Z,3.45
2023-05-07T09:44:44.440Z,4.50
2023-05-07T09:47:12.653Z,2.22
2023-05-07T09:49:43.209Z,4.03
2023-05-07T09:52:11.626Z,3.15
2023-05-07T09:54:39.019Z,3.65
2023-05-07T09:57:08.100Z,3.78
2023-05-07T09:59:37.492Z,3.20
2023-05-07T10:02:05.436Z,5.47
2023-05-07T10:04:33.446Z,3.72
2023-05-07T10:07:00.730Z,2.63
2023-05-07T10:09:27.881Z,2.33
2023-05-07T10:11:55.316Z,3.20
2023-05-07T10:14:22.699Z,2.95
2023-05-07T10:16:49.897Z,4.68
2023-05-07T10:19:17.422Z,3.38
2023-05-07T10:21:58.039Z,2.97
2023-05-07T10:24:32.495Z,3.30
2023-05-07T10:27:01.527Z,4.07
2023-05-07T10:29:28.172Z,3.72
2023-05-07T10:32:12.053Z,2.92
2023-05-07T10:34:42.785Z,5.57
2023-05-07T10:37:11.730Z,4.30
2023-05-07T10:39:38.972Z,4.10
2023-05-07T10:42:13.335Z,3.10
2023-05-07T10:44:40.578Z,3.33
2023-05-07T10:47:10.403Z,2.55
2023-05-07T10:49:57.933Z,4.45
2023-05-07T10:52:27.537Z,3.38
2023-05-07T10:55:26.841Z,2.70
2023-05-07T10:57:53.608Z,5.72
2023-05-07T11:00:40.285Z,4.00
2023-05-07T11:03:07.998Z,4.22
2023-05-07T11:05:37.897Z,2.13
2023-05-07T11:10:55.220Z,2.92
2023-05-07T11:13:52.813Z,4.78
2023-05-07T11:16:20.251Z,2.65
2023-05-07T11:18:54.706Z,2.15
2023-05-07T11:21:38.430Z,3.10
2023-05-07T11:24:09.816Z,4.05
2023-05-07T11:26:50.786Z,2.05
2023-05-07T11:29:23.216Z,3.78
2023-05-07T11:31:55.277Z,2.13
2023-05-07T11:34:23.845Z,3.35
2023-05-07T11:36:50.841Z,2.80
2023-05-07T11:39:37.070Z,3.60
2023-05-07T11:42:04.183Z,4.03
2023-05-07T11:44:42.748Z,2.75
2023-05-07T11:47:09.388Z,3.33
2023-05-07T11:49:36.166Z,3.28
2023-05-07T11:52:04.418Z,2.40
2023-05-07T11:54:39.087Z,2.88
2023-05-07T11:57:06.726Z,2.67
2023-05-07T11:59:45.210Z,3.58
2023-05-07T12:02:14.221Z,3.08
2023-05-07T12:04:40.972Z,3.88
2023-05-07T12:07:13.738Z,2.33
2023-05-07T12:09:41.687Z,3.30
2023-05-07T12:12:09.061Z,2.08
2023-05-07T12:14:42.721Z,2.58
2023-05-07T12:17:10.318Z,3.70
2023-05-07T12:19:38.500Z,3.00
2023-05-07T12:22:06.069Z,3.85
2023-05-07T12:24:57.238Z,11.18
2023-05-07T12:27:24.372Z,2.78
2023-05-07T12:29:51.998Z,3.55
2023-05-07T12:32:20.505Z,3.42
2023-05-07T12:34:50.831Z,2.20
2023-05-07T12:37:17.845Z,3.08
2023-05-07T12:40:04.039Z,4.32
2023-05-07T12:42:36.296Z,3.65
2023-05-07T12:45:29.501Z,1.75
2023-05-07T12:47:56.178Z,4.90
2023-05-07T12:50:22.948Z,4.38
2023-05-07T12:52:49.837Z,2.08
2023-05-07T12:55:17.863Z,1.95
2023-05-07T12:57:50.186Z,2.78
2023-05-07T13:00:17.269Z,3.03
2023-05-07T13:02:45.653Z,2.35
2023-05-07T13:05:12.922Z,6.07
2023-05-07T13:07:41.712Z,2.72
2023-05-07T13:10:08.985Z,1.80
2023-05-07T13:12:36.122Z,2.85
2023-05-07T13:15:03.188Z,2.72
2023-05-07T13:17:31.847Z,2.13
2023-05-07T13:19:58.569Z,2.22
2023-05-07T13:22:25.395Z,2.78
2023-05-07T13:24:52.014Z,2.08
2023-05-07T13:27:20.133Z,2.58
2023-05-07T13:29:46.872Z,1.95
2023-05-07T13:32:13.605Z,1.85
2023-05-07T13:34:40.411Z,2.70
2023-05-07T13:37:11.401Z,1.80
2023-05-07T13:39:38.352Z,4.90
2023-05-07T13:42:05.026Z,2.40
2023-05-07T13:44:31.757Z,2.28
2023-05-07T13:46:58.381Z,5.85
2023-05-07T13:49:25.320Z,1.60
2023-05-07T13:51:51.966Z,4.35
2023-05-07T13:54:18.679Z,1.63
2023-05-07T13:56:45.346Z,1.73
2023-05-07T13:59:11.982Z,1.77
2023-05-07T14:01:38.755Z,2.75
2023-05-07T14:04:05.678Z,1.58
2023-05-07T14:06:32.363Z,3.78
2023-05-07T14:08:59.312Z,1.35
2023-05-07T14:11:26.150Z,3.92
2023-05-07T14:13:52.789Z,2.63
2023-05-07T14:16:19.396Z,1.60
2023-05-07T14:18:46.158Z,3.42
2023-05-07T14:21:12.796Z,2.15
2023-05-07T14:23:39.398Z,1.58
2023-05-07T14:26:06.122Z,3.55
2023-05-07T14:28:32.734Z,2.78
2023-05-07T14:30:59.644Z,3.55
2023-05-07T14:33:26.319Z,1.58
2023-05-07T14:35:52.973Z,1.38
2023-05-07T14:38:19.747Z,3.40
2023-05-07T14:40:46.531Z,2.45
2023-05-07T14:43:13.118Z,3.55
2023-05-07T14:45:39.892Z,1.67
2023-05-07T14:48:06.669Z,3.30
2023-05-07T14:50:33.390Z,2.50
2023-05-07T14:53:00.121Z,3.83
2023-05-07T14:55:26.804Z,1.75
2023-05-07T14:57:53.488Z,3.50
2023-05-07T15:00:20.371Z,2.25
2023-05-07T15:02:47.287Z,2.90
2023-05-07T15:05:15.550Z,1.73
2023-05-07T15:07:42.302Z,1.63
2023-05-07T15:10:09.454Z,1.48
2023-05-07T15:12:36.234Z,2.17
2023-05-07T15:15:03.429Z,1.65
2023-05-07T15:17:30.084Z,2.17
2023-05-07T15:19:56.837Z,2.42
2023-05-07T15:22:23.496Z,3.03
2023-05-07T15:24:50.134Z,4.65
2023-05-07T15:27:18.030Z,3.08
2023-05-07T15:29:44.763Z,3.17
2023-05-07T15:32:11.487Z,3.33
2023-05-07T15:34:38.238Z,2.67
2023-05-07T15:37:04.963Z,1.92
2023-05-07T15:39:31.937Z,2.30
2023-05-07T15:41:58.617Z,1.70
2023-05-07T15:44:29.439Z,2.53
2023-05-07T15:46:56.289Z,2.60
2023-05-07T15:49:23.132Z,2.20
2023-05-07T15:51:51.768Z,2.40
2023-05-07T15:54:21.068Z,3.35
2023-05-07T15:56:48.018Z,2.00
2023-05-07T15:59:16.392Z,2.58
2023-05-07T16:01:43.672Z,1.63
2023-05-07T16:04:10.889Z,2.10
2023-05-07T16:06:37.570Z,3.50
2023-05-07T16:09:04.203Z,2.30
2023-05-07T16:11:30.903Z,3.47
2023-05-07T16:13:57.590Z,5.38
2023-05-07T16:16:26.652Z,1.58
2023-05-07T16:18:53.374Z,3.97
2023-05-07T16:21:19.996Z,2.53
2023-05-07T16:23:46.888Z,3.10
2023-05-07T16:26:14.628Z,1.58
2023-05-07T16:28:41.245Z,2.85
2023-05-07T16:31:08.675Z,4.57
2023-05-07T16:33:35.745Z,2.00
2023-05-07T16:36:03.321Z,1.50
2023-05-07T16:38:33.154Z,1.55
2023-05-07T16:41:00.278Z,2.72
2023-05-07T16:43:26.887Z,2.05
2023-05-07T16:45:53.745Z,2.40
2023-05-07T16:48:21.214Z,1.45
2023-05-07T16:50:47.992Z,2.55
2023-05-07T16:53:14.916Z,1.42
2023-05-07T16:55:41.779Z,1.45
2023-05-07T16:58:11.855Z,1.67
2023-05-07T17:00:49.900Z,1.38
2023-05-07T17:03:17.143Z,1.67
2023-05-07T17:05:44.038Z,1.30
2023-05-07T17:08:10.716Z,2.13
2023-05-07T17:10:37.324Z,2.60
2023-05-07T17:13:04.115Z,2.15
2023-05-07T17:15:30.896Z,2.33
2023-05-07T17:17:57.745Z,2.40
2023-05-07T17:20:25.425Z,1.52
2023-05-07T17:22:52.242Z,1.70
2023-05-07T17:25:19.013Z,1.75
2023-05-07T17:27:45.671Z,2.10
2023-05-07T17:30:13.161Z,2.53
2023-05-07T17:32:40.461Z,1.90
2023-05-07T17:35:07.462Z,2.15
2023-05-07T17:37:34.515Z,2.65
2023-05-07T17:40:01.905Z,2.08
2023-05-07T17:42:28.534Z,1.38
2023-05-07T17:44:55.847Z,2.78
2023-05-07T17:47:22.637Z,1.77
2023-05-07T17:49:49.442Z,1.63
2023-05-07T17:52:16.214Z,3.35
2023-05-07T17:54:43.336Z,2.20
2023-05-07T17:57:10.041Z,2.40
2023-05-07T17:59:37.047Z,2.38
2023-05-07T18:02:03.750Z,4.20
2023-05-07T18:04:30.468Z,3.22
2023-05-07T18:06:57.342Z,1.92
2023-05-07T18:09:24.182Z,1.77
2023-05-07T18:11:50.794Z,2.15
2023-05-07T18:14:17.472Z,2.55
2023-05-07T18:16:44.288Z,2.60
2023-05-07T18:19:12.061Z,3.20
2023-05-07T18:21:38.728Z,2.63
2023-05-07T18:24:05.654Z,2.83
2023-05-07T18:26:32.309Z,1.73
2023-05-07T18:28:59.122Z,2.05
2023-05-07T18:31:25.838Z,2.78
2023-05-07T18:33:53.162Z,1.80
2023-05-07T18:36:19.826Z,3.15
2023-05-07T18:38:46.415Z,2.13
2023-05-07T18:41:14.140Z,2.60
2023-05-07T18:43:40.759Z,2.90
2023-05-07T18:46:07.597Z,2.17
2023-05-07T18:48:34.291Z,3.33
2023-05-07T18:51:00.987Z,2.15
2023-05-07T18:53:29.093Z,4.00
2023-05-07T18:55:55.887Z,1.52
2023-05-07T18:58:22.602Z,4.40
2023-05-07T19:00:50.041Z,1.75
2023-05-07T19:03:17.458Z,2.33
2023-05-07T19:05:44.868Z,1.85
2023-05-07T19:08:12.005Z,4.88
2023-05-07T19:10:38.871Z,4.30
2023-05-07T19:13:05.969Z,4.22
2023-05-07T19:15:32.749Z,3.10
2023-05-07T19:17:59.525Z,3.40
2023-05-07T19:20:26.289Z,4.03
2023-05-07T19:22:53.004Z,3.78
2023-05-07T19:25:19.715Z,5.30
2023-05-07T19:27:47.884Z,4.28
2023-05-07T19:30:14.860Z,2.35
2023-05-07T19:32:41.597Z,4.63
2023-05-07T19:35:08.843Z,3.17
2023-05-07T19:37:35.622Z,4.97
2023-05-07T19:40:06.559Z,2.13
2023-05-07T19:42:33.389Z,3.53
2023-05-07T19:45:00.210Z,3.40
2023-05-07T19:47:26.992Z,2.60
2023-05-07T19:49:53.854Z,2.10
2023-05-07T19:52:20.561Z,2.70
2023-05-07T19:54:47.579Z,2.97
2023-05-07T19:57:15.450Z,3.75
2023-05-07T19:59:42.165Z,2.17
2023-05-07T20:02:08.860Z,4.93
2023-05-07T20:04:38.170Z,3.55
2023-05-07T20:07:05.359Z,2.97
2023-05-07T20:09:32.004Z,5.43
2023-05-07T20:11:58.728Z,3.67
2023-05-07T20:14:27.040Z,4.13
2023-05-07T20:16:54.155Z,2.33
2023-05-07T20:19:20.812Z,3.95
2023-05-07T20:21:47.432Z,4.22
2023-05-07T20:24:14.099Z,2.90
2023-05-07T20:26:41.357Z,3.78
2023-05-07T20:29:08.023Z,3.00
2023-05-07T20:31:35.336Z,4.40
2023-05-07T20:34:02.336Z,3.80
2023-05-07T20:36:29.251Z,3.83
2023-05-07T20:38:56.189Z,3.13
2023-05-07T20:41:25.231Z,3.55
2023-05-07T20:43:52.314Z,4.72
2023-05-07T20:46:22.764Z,4.07
2023-05-07T20:48:50.139Z,4.03
2023-05-07T20:51:17.003Z,3.85
2023-05-07T20:53:46.023Z,4.40
2023-05-07T20:56:14.389Z,3.75
2023-05-07T20:58:41.314Z,3.30
2023-05-07T21:01:08.040Z,5.10
2023-05-07T21:03:34.792Z,3.22
2023-05-07T21:06:01.949Z,3.75
2023-05-07T21:08:28.662Z,3.15
2023-05-07T21:10:55.780Z,4.35
2023-05-07T21:13:23.117Z,4.95
2023-05-07T21:15:49.931Z,3.38
2023-05-07T21:18:16.871Z,4.55
2023-05-07T21:20:43.669Z,3.92
2023-05-07T21:23:10.423Z,4.03
2023-05-07T21:25:38.784Z,3.80
2023-05-07T21:28:07.060Z,6.03
2023-05-07T21:30:33.972Z,5.97
2023-05-07T21:33:00.861Z,4.32
2023-05-07T21:35:27.629Z,4.03
2023-05-07T21:37:54.416Z,3.45
2023-05-07T21:40:21.110Z,5.28
2023-05-07T21:42:47.710Z,5.38
2023-05-07T21:45:14.485Z,3.53
2023-05-07T21:47:41.240Z,4.05
2023-05-07T21:50:08.359Z,4.43
2023-05-07T21:52:35.053Z,5.60
2023-05-07T21:55:04.655Z,4.95
2023-05-07T21:57:31.453Z,5.18
2023-05-07T21:59:58.159Z,4.88
2023-05-07T22:02:25.996Z,5.55
2023-05-07T22:04:53.167Z,5.72
2023-05-07T22:07:19.815Z,4.78
2023-05-07T22:09:46.426Z,4.28
2023-05-07T22:12:13.425Z,7.78
2023-05-07T22:14:40.112Z,5.72
2023-05-07T22:17:06.742Z,5.75
2023-05-07T22:19:33.548Z,5.57
2023-05-07T22:22:00.282Z,4.30
2023-05-07T22:24:26.970Z,4.70
2023-05-07T22:26:53.633Z,4.88
2023-05-07T22:29:23.280Z,4.68
2023-05-07T22:31:50.501Z,6.38
2023-05-07T22:34:17.227Z,5.45
2023-05-07T22:36:44.566Z,4.90
2023-05-07T22:39:11.643Z,5.28
2023-05-07T22:41:38.526Z,5.57
2023-05-07T22:44:05.317Z,5.13
2023-05-07T22:46:32.195Z,6.65
2023-05-07T22:48:58.926Z,6.90
2023-05-07T22:51:26.252Z,5.68
2023-05-07T22:53:52.900Z,5.57
2023-05-07T22:56:19.678Z,5.63
2023-05-07T22:58:47.269Z,8.13
2023-05-07T23:01:15.778Z,7.10
2023-05-07T23:03:42.591Z,5.93
2023-05-07T23:06:09.263Z,6.57
2023-05-07T23:08:36.590Z,6.00
2023-05-07T23:11:03.276Z,6.60
2023-05-07T23:13:30.043Z,5.28
2023-05-07T23:15:58.737Z,6.03
2023-05-07T23:18:27.974Z,7.85
2023-05-07T23:20:54.848Z,6.40
2023-05-07T23:23:22.091Z,7.60
2023-05-07T23:25:52.340Z,6.82
2023-05-07T23:30:46.326Z,7.15
2023-05-07T23:33:13.078Z,6.68
2023-05-07T23:35:39.826Z,6.50
2023-05-07T23:38:06.496Z,9.38
2023-05-07T23:40:33.109Z,6.97
2023-05-07T23:42:59.854Z,8.27
2023-05-07T23:45:26.519Z,7.75
2023-05-07T23:47:53.238Z,6.45
2023-05-07T23:50:20.118Z,9.88
2023-05-07T23:52:46.705Z,7.32
2023-05-07T23:55:14.979Z,7.72
2023-05-07T23:57:41.613Z,7.57
